createdAt,value
2022-09-17T00:01:01.565Z,94923.28
2022-09-17T00:03:27.905Z,94922.72
2022-09-17T00:05:54.221Z,94925.47
2022-09-17T00:08:20.538Z,94917.09
2022-09-17T00:10:46.858Z,94915.66
2022-09-17T00:13:13.214Z,94908.59
2022-09-17T00:15:39.526Z,94916.72
2022-09-17T00:18:05.905Z,94919.28
2022-09-17T00:20:32.211Z,94923.28
2022-09-17T00:22:58.541Z,94936.66
2022-09-17T00:25:24.858Z,94939.22
2022-09-17T00:27:51.176Z,94941.22
2022-09-17T00:30:17.512Z,94954.09
2022-09-17T00:32:43.842Z,94945.19
2022-09-17T00:35:10.210Z,94952.25
2022-09-17T00:37:36.537Z,94952.47
2022-09-17T00:40:02.899Z,94957.53
2022-09-17T00:42:29.245Z,94960.97
2022-09-17T00:44:55.560Z,94962.97
2022-09-17T00:47:21.877Z,94962.06
2022-09-17T00:49:48.204Z,94963.84
2022-09-17T00:52:14.539Z,94965.13
2022-09-17T00:54:40.857Z,94973.09
2022-09-17T00:57:07.170Z,94970.94
2022-09-17T00:59:33.489Z,94972.00
2022-09-17T01:01:59.843Z,94967.84
2022-09-17T01:04:26.186Z,94972.38
2022-09-17T01:06:52.506Z,94966.41
2022-09-17T01:09:18.810Z,94969.66
2022-09-17T01:11:45.138Z,94968.94
2022-09-17T01:14:11.471Z,94966.41
2022-09-17T01:16:37.802Z,94964.59
2022-09-17T01:19:04.122Z,94956.63
2022-09-17T01:21:30.423Z,94953.53
2022-09-17T01:23:56.735Z,94961.16
2022-09-17T01:26:23.042Z,94970.91
2022-09-17T01:28:49.368Z,94964.94
2022-09-17T01:31:15.761Z,94959.34
2022-09-17T01:33:42.148Z,94967.69
2022-09-17T01:36:08.471Z,94968.94
2022-09-17T01:38:34.790Z,94981.78
2022-09-17T01:41:01.122Z,94978.16
2022-09-17T01:43:27.429Z,94994.13
2022-09-17T01:45:53.784Z,94988.84
2022-09-17T01:48:20.091Z,94984.50
2022-09-17T01:50:46.411Z,94978.00
2022-09-17T01:53:12.735Z,94983.22
2022-09-17T01:55:39.053Z,94979.25
2022-09-17T01:58:05.378Z,94978.34
2022-09-17T02:00:31.745Z,94975.47
2022-09-17T02:02:58.074Z,94988.66
2022-09-17T02:05:24.380Z,94982.34
2022-09-17T02:07:50.699Z,94983.78
2022-09-17T02:10:17.014Z,94983.06
2022-09-17T02:12:43.345Z,94984.16
2022-09-17T02:15:09.658Z,94980.34
2022-09-17T02:17:35.974Z,94976.91
2022-09-17T02:20:02.339Z,94987.56
2022-09-17T02:22:28.679Z,94987.44
2022-09-17T02:24:54.998Z,94980.34
2022-09-17T02:27:21.327Z,94974.53
2022-09-17T02:29:47.663Z,94978.34
2022-09-17T02:32:14.041Z,94986.69
2022-09-17T02:34:40.347Z,94980.34
2022-09-17T02:37:06.664Z,94985.59
2022-09-17T02:39:32.985Z,94989.78
2022-09-17T02:41:59.305Z,94992.50
2022-09-17T02:44:25.635Z,94994.66
2022-09-17T02:46:52.008Z,94989.22
2022-09-17T02:49:18.325Z,94986.31
2022-09-17T02:51:44.639Z,94997.53
2022-09-17T02:54:10.954Z,94991.03
2022-09-17T02:56:37.256Z,95005.88
2022-09-17T02:59:03.578Z,95007.34
2022-09-17T03:01:29.883Z,95006.06
2022-09-17T03:03:56.227Z,95006.44
2022-09-17T03:06:22.549Z,95001.16
2022-09-17T03:08:48.906Z,95012.06
2022-09-17T03:11:15.264Z,95009.53
2022-09-17T03:13:41.571Z,95005.53
2022-09-17T03:16:07.939Z,95000.44
2022-09-17T03:18:34.315Z,94997.00
2022-09-17T03:21:00.625Z,94987.22
2022-09-17T03:23:26.950Z,94992.09
2022-09-17T03:25:53.278Z,94993.00
2022-09-17T03:28:19.579Z,95000.81
2022-09-17T03:30:45.894Z,95013.88
2022-09-17T03:33:12.217Z,95021.66
2022-09-17T03:35:38.526Z,95024.94
2022-09-17T03:38:04.869Z,95020.56
2022-09-17T03:40:31.218Z,95024.53
2022-09-17T03:42:57.580Z,95037.97
2022-09-17T03:45:23.950Z,95031.25
2022-09-17T03:47:50.275Z,95040.31
2022-09-17T03:50:16.603Z,95034.88
2022-09-17T03:52:42.926Z,95037.41
2022-09-17T03:55:09.241Z,95037.03
2022-09-17T03:57:35.554Z,95028.72
2022-09-17T04:00:01.872Z,95031.44
2022-09-17T04:02:28.290Z,95030.72
2022-09-17T04:04:54.667Z,95041.56
2022-09-17T04:07:20.979Z,95047.56
2022-09-17T04:09:47.325Z,95057.50
2022-09-17T04:12:13.639Z,95057.88
2022-09-17T04:14:40.154Z,95053.34
2022-09-17T04:17:06.478Z,95060.94
2022-09-17T04:19:32.773Z,95066.22
2022-09-17T04:21:59.096Z,95071.13
2022-09-17T04:24:25.416Z,95066.38
2022-09-17T04:26:51.772Z,95076.16
2022-09-17T04:29:18.096Z,95085.56
2022-09-17T04:31:44.465Z,95078.72
2022-09-17T04:34:10.823Z,95079.06
2022-09-17T04:36:37.139Z,95084.69
2022-09-17T04:39:03.468Z,95086.31
2022-09-17T04:41:29.786Z,95099.53
2022-09-17T04:43:56.167Z,95091.41
2022-09-17T04:46:22.577Z,95103.91
2022-09-17T04:48:48.920Z,95098.06
2022-09-17T04:51:15.256Z,95106.44
2022-09-17T04:53:41.557Z,95108.75
2022-09-17T04:56:07.879Z,95106.78
2022-09-17T04:58:34.208Z,95105.88
2022-09-17T05:01:00.559Z,95105.13
2022-09-17T05:03:26.912Z,95096.09
2022-09-17T05:05:53.210Z,95103.84
2022-09-17T05:08:19.543Z,95104.78
2022-09-17T05:10:45.868Z,95102.97
2022-09-17T05:13:12.191Z,95107.13
2022-09-17T05:15:38.512Z,95112.75
2022-09-17T05:18:04.846Z,95109.66
2022-09-17T05:20:31.163Z,95113.84
2022-09-17T05:22:57.507Z,95113.63
2022-09-17T05:25:23.818Z,95115.81
2022-09-17T05:27:50.136Z,95112.75
2022-09-17T05:30:16.463Z,95108.59
2022-09-17T05:32:42.765Z,95116.75
2022-09-17T05:35:09.096Z,95116.00
2022-09-17T05:37:35.407Z,95115.44
2022-09-17T05:40:01.773Z,95122.16
2022-09-17T05:42:28.170Z,95119.63
2022-09-17T05:44:54.486Z,95124.69
2022-09-17T05:47:20.802Z,95124.50
2022-09-17T05:49:47.132Z,95122.69
2022-09-17T05:52:13.459Z,95123.94
2022-09-17T05:54:39.786Z,95123.78
2022-09-17T05:57:06.100Z,95120.34
2022-09-17T05:59:32.419Z,95116.03
2022-09-17T06:01:58.775Z,95119.81
2022-09-17T06:04:25.100Z,95122.19
2022-09-17T06:06:51.428Z,95130.47
2022-09-17T06:09:17.734Z,95133.00
2022-09-17T06:11:44.060Z,95138.59
2022-09-17T06:14:10.384Z,95137.53
2022-09-17T06:16:36.724Z,95140.28
2022-09-17T06:19:03.041Z,95141.00
2022-09-17T06:21:29.349Z,95137.41
2022-09-17T06:23:55.682Z,95131.41
2022-09-17T06:26:21.984Z,95128.69
2022-09-17T06:28:48.300Z,95131.97
2022-09-17T06:31:14.679Z,95124.88
2022-09-17T06:33:41.052Z,95128.31
2022-09-17T06:36:12.460Z,95128.50
2022-09-17T06:38:39.891Z,95139.19
2022-09-17T06:41:06.223Z,95132.13
2022-09-17T06:43:32.554Z,95133.41
2022-09-17T06:45:58.892Z,95137.56
2022-09-17T06:48:25.200Z,95142.81
2022-09-17T06:50:51.551Z,95137.75
2022-09-17T06:53:17.862Z,95145.16
2022-09-17T06:55:44.220Z,95138.44
2022-09-17T06:58:10.556Z,95155.50
2022-09-17T07:00:36.897Z,95148.63
2022-09-17T07:03:03.238Z,95150.22
2022-09-17T07:05:29.553Z,95148.94
2022-09-17T07:07:55.853Z,95156.22
2022-09-17T07:10:22.168Z,95157.66
2022-09-17T07:12:50.078Z,95164.53
2022-09-17T07:15:16.514Z,95155.84
2022-09-17T07:17:42.846Z,95167.81
2022-09-17T07:20:09.161Z,95165.63
2022-09-17T07:22:35.488Z,95163.47
2022-09-17T07:25:01.840Z,95177.75
2022-09-17T07:27:28.165Z,95177.59
2022-09-17T07:29:54.486Z,95185.72
2022-09-17T07:32:20.802Z,95179.56
2022-09-17T07:34:47.156Z,95188.25
2022-09-17T07:37:13.465Z,95185.00
2022-09-17T07:39:39.772Z,95180.84
2022-09-17T07:42:06.129Z,95189.91
2022-09-17T07:44:32.442Z,95187.72
2022-09-17T07:46:58.833Z,95197.88
2022-09-17T07:49:25.177Z,95194.44
2022-09-17T07:51:51.535Z,95195.00
2022-09-17T07:54:17.850Z,95197.34
2022-09-17T07:56:44.163Z,95193.38
2022-09-17T07:59:10.482Z,95195.69
2022-09-17T08:01:36.938Z,95212.69
2022-09-17T08:04:03.368Z,95212.16
2022-09-17T08:06:29.703Z,95214.19
2022-09-17T08:08:56.029Z,95212.38
2022-09-17T08:14:08.652Z,95220.13
2022-09-17T08:16:35.037Z,95222.69
2022-09-17T08:19:01.387Z,95222.47
2022-09-17T08:21:27.706Z,95243.34
2022-09-17T08:23:54.038Z,95240.78
2022-09-17T08:26:20.344Z,95239.88
2022-09-17T08:28:46.678Z,95237.56
2022-09-17T08:31:13.029Z,95243.00
2022-09-17T08:33:39.384Z,95243.84
2022-09-17T08:36:05.695Z,95233.34
2022-09-17T08:38:35.798Z,95242.97
2022-09-17T08:41:04.281Z,95245.00
2022-09-17T08:43:30.588Z,95246.72
2022-09-17T08:45:56.889Z,95251.84
2022-09-17T08:48:23.206Z,95259.44
2022-09-17T08:50:49.525Z,95262.53
2022-09-17T08:53:15.856Z,95256.00
2022-09-17T08:55:42.188Z,95260.88
2022-09-17T08:58:08.507Z,95267.75
2022-09-17T09:00:35.020Z,95263.59
2022-09-17T09:03:01.399Z,95264.16
2022-09-17T09:05:27.744Z,95259.13
2022-09-17T09:07:54.049Z,95262.72
2022-09-17T09:10:20.407Z,95268.53
2022-09-17T09:12:46.761Z,95260.56
2022-09-17T09:15:13.071Z,95265.66
2022-09-17T09:17:39.388Z,95262.16
2022-09-17T09:20:05.703Z,95261.28
2022-09-17T09:22:32.035Z,95272.50
2022-09-17T09:24:58.342Z,95270.16
2022-09-17T09:27:24.660Z,95268.84
2022-09-17T09:29:50.986Z,95279.94
2022-09-17T09:32:17.312Z,95275.38
2022-09-17T09:34:43.647Z,95271.41
2022-09-17T09:37:09.956Z,95267.97
2022-09-17T09:39:41.329Z,95263.44
2022-09-17T09:42:10.177Z,95273.03
2022-09-17T09:44:36.505Z,95266.00
2022-09-17T09:47:02.861Z,95267.59
2022-09-17T09:49:29.241Z,95271.44
2022-09-17T09:51:55.551Z,95273.38
2022-09-17T09:54:21.862Z,95280.81
2022-09-17T09:56:48.220Z,95289.19
2022-09-17T09:59:14.594Z,95281.22
2022-09-17T10:01:41.027Z,95279.28
2022-09-17T10:04:07.383Z,95286.31
2022-09-17T10:06:33.712Z,95281.59
2022-09-17T10:09:00.037Z,95290.66
2022-09-17T10:11:26.367Z,95287.16
2022-09-17T10:13:52.680Z,95289.16
2022-09-17T10:16:19.092Z,95289.38
2022-09-17T10:18:45.528Z,95291.03
2022-09-17T10:21:11.847Z,95281.44
2022-09-17T10:23:38.156Z,95284.16
2022-09-17T10:26:04.471Z,95282.31
2022-09-17T10:28:30.770Z,95274.44
2022-09-17T10:30:57.097Z,95284.59
2022-09-17T10:33:23.434Z,95277.88
2022-09-17T10:35:49.746Z,95280.88
2022-09-17T10:38:16.060Z,95285.94
2022-09-17T10:40:42.374Z,95283.41
2022-09-17T10:43:08.698Z,95293.31
2022-09-17T10:45:35.035Z,95285.59
2022-09-17T10:48:01.356Z,95283.22
2022-09-17T10:50:27.671Z,95289.75
2022-09-17T10:52:54.003Z,95282.56
2022-09-17T10:55:20.316Z,95289.19
2022-09-17T10:57:46.632Z,95285.09
2022-09-17T11:00:12.972Z,95287.88
2022-09-17T11:02:39.432Z,95284.03
2022-09-17T11:05:05.840Z,95282.34
2022-09-17T11:07:32.166Z,95284.88
2022-09-17T11:09:58.496Z,95284.50
2022-09-17T11:12:24.834Z,95289.03
2022-09-17T11:14:51.169Z,95294.56
2022-09-17T11:17:17.506Z,95291.63
2022-09-17T11:19:43.819Z,95291.22
2022-09-17T11:22:10.162Z,95287.59
2022-09-17T11:24:36.473Z,95292.66
2022-09-17T11:27:02.792Z,95282.00
2022-09-17T11:29:29.118Z,95280.91
2022-09-17T11:31:55.535Z,95296.13
2022-09-17T11:34:21.898Z,95288.56
2022-09-17T11:36:48.233Z,95290.38
2022-09-17T11:39:14.555Z,95284.38
2022-09-17T11:41:40.879Z,95293.25
2022-09-17T11:44:07.208Z,95290.91
2022-09-17T11:46:33.610Z,95288.91
2022-09-17T11:48:59.974Z,95289.47
2022-09-17T11:51:26.306Z,95294.91
2022-09-17T11:53:52.617Z,95288.38
2022-09-17T11:56:18.965Z,95293.31
2022-09-17T11:58:45.285Z,95289.47
2022-09-17T12:01:11.623Z,95289.31
2022-09-17T12:03:37.930Z,95284.75
2022-09-17T12:06:04.252Z,95284.63
2022-09-17T12:08:30.566Z,95288.94
2022-09-17T12:10:56.879Z,95291.88
2022-09-17T12:13:23.188Z,95290.22
2022-09-17T12:15:53.184Z,95284.06
2022-09-17T12:18:31.786Z,95280.47
2022-09-17T12:20:59.156Z,95278.44
2022-09-17T12:23:25.470Z,95273.94
2022-09-17T12:25:51.794Z,95270.47
2022-09-17T12:28:18.106Z,95272.28
2022-09-17T12:30:44.460Z,95268.47
2022-09-17T12:33:10.796Z,95275.16
2022-09-17T12:36:06.047Z,95271.03
2022-09-17T12:38:23.425Z,95262.31
2022-09-17T12:40:49.743Z,95264.16
2022-09-17T12:43:16.054Z,95269.75
2022-09-17T12:45:42.363Z,95263.94
2022-09-17T12:48:08.685Z,95255.63
2022-09-17T12:50:35.001Z,95261.97
2022-09-17T12:53:01.298Z,95256.38
2022-09-17T12:55:27.635Z,95257.44
2022-09-17T12:57:53.967Z,95254.53
2022-09-17T13:00:20.311Z,95261.22
2022-09-17T13:02:46.627Z,95252.00
2022-09-17T13:05:12.958Z,95254.88
2022-09-17T13:07:39.284Z,95257.06
2022-09-17T13:10:05.621Z,95254.91
2022-09-17T13:12:31.937Z,95248.56
2022-09-17T13:14:58.310Z,95257.97
2022-09-17T13:17:24.652Z,95260.69
2022-09-17T13:19:50.966Z,95263.44
2022-09-17T13:22:17.302Z,95265.25
2022-09-17T13:24:47.075Z,95260.66
2022-09-17T13:27:13.687Z,95269.91
2022-09-17T13:29:40.005Z,95259.78
2022-09-17T13:32:06.335Z,95253.81
2022-09-17T13:34:32.642Z,95259.03
2022-09-17T13:36:58.955Z,95265.41
2022-09-17T13:39:25.278Z,95265.78
2022-09-17T13:41:51.588Z,95265.78
2022-09-17T13:44:17.946Z,95266.34
2022-09-17T13:46:44.555Z,95267.94
2022-09-17T13:49:10.905Z,95270.13
2022-09-17T13:51:37.222Z,95276.09
2022-09-17T13:54:03.525Z,95279.53
2022-09-17T13:56:29.853Z,95283.34
2022-09-17T13:58:56.181Z,95276.09
2022-09-17T14:01:22.491Z,95277.19
2022-09-17T14:03:48.827Z,95276.47
2022-09-17T14:06:15.146Z,95271.19
2022-09-17T14:08:41.453Z,95282.94
2022-09-17T14:11:07.767Z,95276.38
2022-09-17T14:13:34.078Z,95278.59
2022-09-17T14:16:00.442Z,95275.09
2022-09-17T14:18:26.799Z,95279.78
2022-09-17T14:20:53.156Z,95278.09
2022-09-17T14:23:19.454Z,95274.72
2022-09-17T14:25:45.794Z,95270.72
2022-09-17T14:28:12.126Z,95277.88
2022-09-17T14:30:38.431Z,95279.19
2022-09-17T14:33:04.753Z,95277.72
2022-09-17T14:35:31.084Z,95277.50
2022-09-17T14:37:57.420Z,95270.19
2022-09-17T14:40:23.862Z,95276.59
2022-09-17T14:42:50.332Z,95267.81
2022-09-17T14:45:16.664Z,95273.22
2022-09-17T14:47:42.972Z,95271.94
2022-09-17T14:50:09.279Z,95275.22
2022-09-17T14:52:35.604Z,95272.16
2022-09-17T14:55:01.933Z,95279.22
2022-09-17T14:57:28.278Z,95277.50
2022-09-17T14:59:54.593Z,95275.59
2022-09-17T15:02:20.933Z,95272.88
2022-09-17T15:04:47.260Z,95274.00
2022-09-17T15:07:13.589Z,95279.78
2022-09-17T15:09:39.916Z,95273.09
2022-09-17T15:12:06.262Z,95274.56
2022-09-17T15:14:32.589Z,95277.44
2022-09-17T15:16:58.912Z,95269.25
2022-09-17T15:19:25.255Z,95273.59
2022-09-17T15:21:51.573Z,95278.09
2022-09-17T15:24:17.890Z,95272.00
2022-09-17T15:26:44.195Z,95280.34
2022-09-17T15:29:10.514Z,95272.38
2022-09-17T15:31:36.892Z,95284.09
2022-09-17T15:34:03.291Z,95278.31
2022-09-17T15:36:29.610Z,95281.22
2022-09-17T15:38:55.932Z,95276.59
2022-09-17T15:41:22.263Z,95278.34
2022-09-17T15:43:48.635Z,95276.88
2022-09-17T15:46:15.000Z,95287.44
2022-09-17T15:48:41.347Z,95287.22
2022-09-17T15:51:07.650Z,95279.94
2022-09-17T15:53:33.983Z,95278.66
2022-09-17T15:56:00.290Z,95288.25
2022-09-17T15:58:26.616Z,95290.16
2022-09-17T16:00:53.044Z,95284.75
2022-09-17T16:03:19.365Z,95290.53
2022-09-17T16:05:45.688Z,95288.03
2022-09-17T16:08:12.036Z,95284.66
2022-09-17T16:10:38.365Z,95284.81
2022-09-17T16:13:04.718Z,95284.44
2022-09-17T16:15:31.054Z,95281.94
2022-09-17T16:17:57.383Z,95287.94
2022-09-17T16:20:23.788Z,95297.84
2022-09-17T16:22:50.160Z,95282.09
2022-09-17T16:25:16.481Z,95289.75
2022-09-17T16:27:42.800Z,95291.31
2022-09-17T16:30:09.105Z,95294.97
2022-09-17T16:32:35.402Z,95295.47
2022-09-17T16:35:01.709Z,95297.28
2022-09-17T16:37:28.215Z,95300.41
2022-09-17T16:39:54.574Z,95292.75
2022-09-17T16:42:20.905Z,95303.41
2022-09-17T16:44:47.237Z,95303.94
2022-09-17T16:47:13.567Z,95308.91
2022-09-17T16:49:39.895Z,95305.25
2022-09-17T16:52:06.198Z,95312.47
2022-09-17T16:54:32.527Z,95310.19
2022-09-17T16:56:58.843Z,95300.22
2022-09-17T16:59:25.158Z,95309.69
2022-09-17T17:01:51.464Z,95312.25
2022-09-17T17:04:17.779Z,95312.19
2022-09-17T17:06:44.082Z,95319.19
2022-09-17T17:09:10.395Z,95321.22
2022-09-17T17:11:36.708Z,95322.38
2022-09-17T17:14:03.041Z,95324.06
2022-09-17T17:16:29.430Z,95328.22
2022-09-17T17:18:55.790Z,95329.22
2022-09-17T17:21:22.117Z,95326.19
2022-09-17T17:23:48.429Z,95325.47
2022-09-17T17:26:14.770Z,95324.91
2022-09-17T17:28:41.091Z,95328.22
2022-09-17T17:31:07.455Z,95328.53
2022-09-17T17:33:33.823Z,95328.13
2022-09-17T17:36:04.008Z,95327.75
2022-09-17T17:38:33.767Z,95339.50
2022-09-17T17:41:00.145Z,95341.47
2022-09-17T17:43:26.461Z,95336.25
2022-09-17T17:45:52.796Z,95344.06
2022-09-17T17:48:19.111Z,95338.78
2022-09-17T17:50:45.414Z,95334.63
2022-09-17T17:53:11.723Z,95344.91
2022-09-17T17:55:38.046Z,95349.09
2022-09-17T17:58:04.366Z,95352.34
2022-09-17T18:00:30.680Z,95355.59
2022-09-17T18:02:57.096Z,95353.03
2022-09-17T18:05:23.459Z,95359.56
2022-09-17T18:07:49.761Z,95353.28
2022-09-17T18:10:16.076Z,95357.78
2022-09-17T18:12:42.447Z,95359.97
2022-09-17T18:15:08.748Z,95363.94
2022-09-17T18:17:35.083Z,95365.66
2022-09-17T18:20:01.413Z,95374.03
2022-09-17T18:22:27.731Z,95373.81
2022-09-17T18:24:54.086Z,95372.75
2022-09-17T18:27:20.386Z,95373.00
2022-09-17T18:29:46.733Z,95381.69
2022-09-17T18:32:13.037Z,95379.91
2022-09-17T18:34:39.335Z,95384.94
2022-09-17T18:37:05.649Z,95382.94
2022-09-17T18:42:18.277Z,95385.56
2022-09-17T18:44:44.595Z,95397.50
2022-09-17T18:47:10.907Z,95398.44
2022-09-17T18:49:37.201Z,95402.44
2022-09-17T18:52:03.523Z,95406.41
2022-09-17T18:54:29.859Z,95408.22
2022-09-17T18:56:56.182Z,95410.19
2022-09-17T18:59:22.507Z,95407.00
2022-09-17T19:01:48.891Z,95412.72
2022-09-17T19:04:15.261Z,95420.19
2022-09-17T19:06:41.592Z,95424.84
2022-09-17T19:09:07.907Z,95420.91
2022-09-17T19:11:34.237Z,95426.50
2022-09-17T19:14:00.535Z,95428.91
2022-09-17T19:16:26.933Z,95433.00
2022-09-17T19:18:53.303Z,95420.47
2022-09-17T19:21:19.617Z,95424.38
2022-09-17T19:23:45.922Z,95435.22
2022-09-17T19:26:12.247Z,95439.75
2022-09-17T19:28:38.595Z,95427.63
2022-09-17T19:31:04.983Z,95428.91
2022-09-17T19:33:31.326Z,95430.69
2022-09-17T19:35:57.663Z,95432.13
2022-09-17T19:38:23.976Z,95432.81
2022-09-17T19:40:50.388Z,95439.56
2022-09-17T19:43:16.708Z,95431.06
2022-09-17T19:45:43.024Z,95436.88
2022-09-17T19:48:09.333Z,95434.25
2022-09-17T19:50:35.646Z,95435.38
2022-09-17T19:53:01.958Z,95430.63
2022-09-17T19:55:28.266Z,95432.25
2022-09-17T19:57:54.598Z,95432.13
2022-09-17T20:00:20.939Z,95433.56
2022-09-17T20:02:47.372Z,95429.97
2022-09-17T20:05:13.726Z,95434.91
2022-09-17T20:07:40.034Z,95441.06
2022-09-17T20:10:06.335Z,95433.78
2022-09-17T20:12:32.690Z,95443.38
2022-09-17T20:14:59.026Z,95439.34
2022-09-17T20:17:25.354Z,95445.50
2022-09-17T20:19:51.712Z,95432.50
2022-09-17T20:22:18.028Z,95436.88
2022-09-17T20:24:48.878Z,95437.03
2022-09-17T20:27:17.159Z,95444.06
2022-09-17T20:29:43.485Z,95447.03
2022-09-17T20:32:09.803Z,95442.28
2022-09-17T20:34:36.116Z,95449.38
2022-09-17T20:37:13.134Z,95447.94
2022-09-17T20:39:40.161Z,95454.31
2022-09-17T20:42:06.471Z,95453.25
2022-09-17T20:44:32.780Z,95456.09
2022-09-17T20:46:59.140Z,95459.78
2022-09-17T20:49:25.477Z,95452.34
2022-09-17T20:51:51.804Z,95456.91
2022-09-17T20:54:18.114Z,95457.78
2022-09-17T20:56:44.443Z,95460.66
2022-09-17T20:59:10.763Z,95457.06
2022-09-17T21:01:37.107Z,95458.00
2022-09-17T21:04:03.552Z,95459.78
2022-09-17T21:06:29.971Z,95456.88
2022-09-17T21:08:56.284Z,95459.59
2022-09-17T21:11:23.668Z,95462.63
2022-09-17T21:13:50.039Z,95466.63
2022-09-17T21:16:16.395Z,95466.88
2022-09-17T21:18:42.743Z,95465.19
2022-09-17T21:21:09.087Z,95469.88
2022-09-17T21:23:35.426Z,95474.28
2022-09-17T21:26:01.739Z,95467.88
2022-09-17T21:28:28.044Z,95470.75
2022-09-17T21:30:54.436Z,95469.69
2022-09-17T21:33:20.896Z,95475.31
2022-09-17T21:35:47.214Z,95470.25
2022-09-17T21:38:13.550Z,95469.47
2022-09-17T21:40:42.302Z,95470.03
2022-09-17T21:43:10.176Z,95464.28
2022-09-17T21:45:36.499Z,95468.94
2022-09-17T21:48:02.827Z,95464.09
2022-09-17T21:50:29.153Z,95471.13
2022-09-17T21:52:55.480Z,95467.56
2022-09-17T21:55:21.797Z,95466.63
2022-09-17T21:57:48.098Z,95459.66
2022-09-17T22:00:14.419Z,95465.50
2022-09-17T22:02:40.772Z,95470.25
2022-09-17T22:05:07.131Z,95458.28
2022-09-17T22:07:33.457Z,95464.84
2022-09-17T22:09:59.763Z,95464.94
2022-09-17T22:12:26.074Z,95457.72
2022-09-17T22:14:52.395Z,95462.97
2022-09-17T22:17:18.689Z,95460.72
2022-09-17T22:19:44.989Z,95461.16
2022-09-17T22:22:11.299Z,95458.94
2022-09-17T22:24:37.630Z,95463.63
2022-09-17T22:27:03.926Z,95458.94
2022-09-17T22:29:30.231Z,95453.19
2022-09-17T22:31:56.547Z,95459.00
2022-09-17T22:34:22.872Z,95459.06
2022-09-17T22:36:49.283Z,95460.81
2022-09-17T22:39:15.614Z,95454.09
2022-09-17T22:41:41.934Z,95462.13
2022-09-17T22:44:08.242Z,95461.72
2022-09-17T22:46:34.639Z,95448.16
2022-09-17T22:49:00.985Z,95447.34
2022-09-17T22:51:27.327Z,95445.19
2022-09-17T22:53:53.634Z,95452.84
2022-09-17T22:56:19.953Z,95447.75
2022-09-17T22:58:46.276Z,95456.81
2022-09-17T23:01:12.661Z,95458.44
2022-09-17T23:03:39.053Z,95458.59
2022-09-17T23:06:05.382Z,95461.31
2022-09-17T23:08:31.731Z,95455.00
2022-09-17T23:10:58.052Z,95455.31
2022-09-17T23:13:24.378Z,95456.44
2022-09-17T23:15:50.747Z,95451.38
2022-09-17T23:18:17.099Z,95453.00
2022-09-17T23:20:43.412Z,95456.22
2022-09-17T23:23:09.736Z,95455.66
2022-09-17T23:25:36.044Z,95446.19
2022-09-17T23:28:02.345Z,95446.91
2022-09-17T23:30:28.654Z,95442.66
2022-09-17T23:32:54.957Z,95439.75
2022-09-17T23:35:21.269Z,95433.97
2022-09-17T23:37:47.583Z,95432.81
2022-09-17T23:40:13.983Z,95437.56
2022-09-17T23:42:40.334Z,95439.59
2022-09-17T23:45:06.639Z,95443.66
2022-09-17T23:47:32.965Z,95435.69
2022-09-17T23:49:59.284Z,95441.72
2022-09-17T23:52:25.594Z,95437.69
2022-09-17T23:54:55.305Z,95436.63
2022-09-17T23:57:24.574Z,95431.34
2022-09-17T23:59:50.898Z,95428.81
